Terminal Aerodrome Forecast
Issued by NWS Huntsville, AL

Home | Current Version | Previous Version | Text Only | Print | Product List | Glossary On
Versions: 1 2 3 4 5 6 7 8 9 10 11 12 13 14 15 16 17 18 19 20 21 22 23 24 25 26 27 28 29 30 31 32
555
FTUS44 KHUN 310804 AAA
TAFMSL
TAF AMD
KMSL 310804Z 3108/0106 VRB03KT P6SM SCT250
      TEMPO 3109/3112 4SM BR SCT005
     FM311400 VRB04KT P6SM SCT030 SCT120
     FM311800 26007KT P6SM SCT040 PROB30 3120/3124 3SM -TSRA
      BKN040CB
     FM010000 VRB02KT P6SM VCSH SCT050 BKN250=

USA.gov is the U.S. government's official web portal to all federal, state and local government web resources and services.